Airfield :







YOU CAN JOIN US ON...

 
LOGIN :

Register | Disclaimer

   EN    FR    IT 

 









Legend :    VFR   Marginal VFR   IFR   Intensive IFR   Very Intensive IFR
Visi :
Ceiling :
>= 8 km
>= 3000ft
5 to 8 km
1000 to 3000 ft
1500m to 5 km
500 to 1000 ft
800 to 1500m
200 to 500 ft
< 800m
< 200 ft
Symbols :   Thunderstorms  Fog  Heavy snow  Heavy precipitations  Wind > 20 kt






- Airport Elevation : 1808 ft
- IATA code : YWK


CYWK - Wabush

CURRENT METAR :
  • 200600Z AUTO 19005KT 9SM -RA SCT037 OVC060 06/03 A2971 RMK SLP076

EXPIRED METARs :
  • 200529Z AUTO 21006KT 9SM -RA OVC037 07/02 A2970 RMK SLP078
  • 200500Z AUTO 22006KT 9SM FEW038 SCT046 SCT055 OVC071 07/02 A2970 RMK SLP073
  • 200400Z AUTO 21006KT 9SM BKN066 OVC079 08/00 A2968 RMK SLP069

TAF AMD TAF CYWK
Valid from the 20 at 05:00 until the 20 at 14:00 UTC


200526Z 2005/2014 21008KT P6SM SCT020 OVC040
TEMPO 2005/2008 5SM -SHRA BR OVC020
FM200800 21008KT 4SM -RA BR SCT008 OVC015
TEMPO 2008/2014 P6SM NSW
PROB30 2008/2014 2SM -RA BR OVC008 RMK NXT FCST BY 200800Z
CZUL FIR / North America



MET'MAP, your aeronautical weather chart ! - Copyright ORBIFLY December 2007 - Disclaimer

ORBIFLY MET'MAP TEAM :

Programming & Development : Alexandra Zaïnal
Original concept : Baudouin d'Aumeries
Technical & hardware support : Manuel Goepfert
Assistance : Marc-Olivier Méhu

Contact : metmap@orbifly.com




SOURCES & CREDITS :

   NOAA